Time;durP1;ratioP1;P1;durP2;ratioP2;P2;SDS_P1;SDS_P2;PMS_P1;PMS_P2;Temp;Humidity;BMP_temperature;BMP_pressure;BME280_temperature;BME280_humidity;BME280_pressure;Samples;Min_cycle;Max_cycle;Signal;HPM_P1;HPM_P2
2021/05/06 00:01:17;;;;;;;4.1;2.2;;;;;;;5.59;100;97805.17;;;;
2021/05/06 00:11:09;;;;;;;4.8;2.1;;;;;;;5.49;100;97813.36;;;;
2021/05/06 00:40:53;;;;;;;5.9;2.5;;;;;;;5.26;100;97857.83;;;;
2021/05/06 01:20:33;;;;;;;2.9;1.4;;;;;;;5.1;100;97909.89;;;;
2021/05/06 01:30:35;;;;;;;2.3;1.2;;;;;;;4.87;100;97913.39;;;;
2021/05/06 01:50:42;;;;;;;9;3.2;;;;;;;4.7;100;97892.52;;;;
2021/05/06 02:20:22;;;;;;;3.4;1.4;;;;;;;4.08;100;97919.36;;;;
2021/05/06 02:30:23;;;;;;;4.2;1.8;;;;;;;3.9;100;97916.32;;;;
2021/05/06 02:40:17;;;;;;;2.7;1.6;;;;;;;3.79;100;97930.8;;;;
2021/05/06 02:50:16;;;;;;;4.3;2.4;;;;;;;3.66;100;97930.66;;;;
2021/05/06 03:10:18;;;;;;;5;2.4;;;;;;;3.38;100;97940.98;;;;
2021/05/06 03:30:23;;;;;;;2.9;1.9;;;;;;;3.37;100;97976.66;;;;
2021/05/06 04:30:15;;;;;;;8.9;3.3;;;;;;;3.98;100;98075.69;;;;
2021/05/06 04:39:54;;;;;;;5.1;2.6;;;;;;;4.42;100;98088.14;;;;
2021/05/06 05:10:02;;;;;;;6.7;2.5;;;;;;;5.69;100;98096.41;;;;
2021/05/06 05:20:00;;;;;;;5.4;2.7;;;;;;;6.07;97.45898;98115.98;;;;
2021/05/06 05:29:42;;;;;;;3.6;2;;;;;;;6.45;95.01367;98117.53;;;;
2021/05/06 05:39:47;;;;;;;3.5;1.2;;;;;;;6.79;92.41504;98129.83;;;;
2021/05/06 05:59:36;;;;;;;6.1;2.3;;;;;;;7.35;90.125;98121.58;;;;
2021/05/06 06:09:35;;;;;;;3.9;1.2;;;;;;;7.76;87.79785;98121.56;;;;
2021/05/06 06:19:36;;;;;;;3.9;1.2;;;;;;;7.72;86.0918;98116;;;;
2021/05/06 06:29:33;;;;;;;3.1;1.6;;;;;;;8.04;85.93164;98140;;;;
2021/05/06 06:39:30;;;;;;;6.4;1.8;;;;;;;8.39;85.08203;98129.59;;;;
2021/05/06 06:49:28;;;;;;;4.7;1.8;;;;;;;8.66;85.7959;98131.36;;;;
2021/05/06 06:59:27;;;;;;;4.7;1.6;;;;;;;8.97;85.63477;98122.23;;;;
2021/05/06 07:09:25;;;;;;;3.3;1.3;;;;;;;9.1;80.67383;98128.62;;;;
2021/05/06 07:19:24;;;;;;;4.9;1.7;;;;;;;9.27;79.30078;98114.45;;;;
2021/05/06 07:29:22;;;;;;;5.3;1.6;;;;;;;9.48;77.18945;98107.42;;;;
2021/05/06 07:39:22;;;;;;;4;1.7;;;;;;;10.05;77.12305;98116.27;;;;
2021/05/06 07:49:22;;;;;;;6.3;1.1;;;;;;;10.07;79.31348;98117.53;;;;
2021/05/06 07:59:18;;;;;;;13.5;2.1;;;;;;;9.93;75.11816;98103.42;;;;
2021/05/06 08:09:17;;;;;;;5.7;1.9;;;;;;;10.07;75.49219;98103.27;;;;
2021/05/06 08:19:16;;;;;;;3.3;1.7;;;;;;;10.87;71.42578;98091.84;;;;
2021/05/06 08:29:15;;;;;;;6.1;2;;;;;;;11.01;67.31738;98110.52;;;;
2021/05/06 08:39:14;;;;;;;3;1.4;;;;;;;11.02;67.97656;98112.9;;;;
2021/05/06 08:49:12;;;;;;;3.7;1.3;;;;;;;11.33;69.59863;98107.23;;;;
2021/05/06 08:59:11;;;;;;;2.9;1.5;;;;;;;12.05;67.27344;98098.92;;;;
2021/05/06 09:09:10;;;;;;;2.8;1.4;;;;;;;12.72;68.5918;98097.11;;;;
2021/05/06 09:19:09;;;;;;;3.2;1.1;;;;;;;11.78;61.92773;98093.23;;;;
2021/05/06 09:29:08;;;;;;;5.7;2.2;;;;;;;12.21;65.99023;98084.84;;;;
2021/05/06 09:39:07;;;;;;;3;1.5;;;;;;;12.6;65.81055;98079.71;;;;
2021/05/06 09:49:06;;;;;;;2.6;1.5;;;;;;;12.19;65.27148;98082.45;;;;
2021/05/06 09:59:05;;;;;;;2.5;1.3;;;;;;;12.25;62.42578;98085.77;;;;
2021/05/06 10:09:04;;;;;;;3;1.1;;;;;;;12.03;62.9541;98090.38;;;;
2021/05/06 10:19:03;;;;;;;1.6;1;;;;;;;12.27;62.90625;98102.42;;;;
2021/05/06 10:29:02;;;;;;;3;1.1;;;;;;;11.91;62.83301;98084.88;;;;
2021/05/06 10:39:01;;;;;;;2.5;1.1;;;;;;;12.05;65.03516;98103.53;;;;
2021/05/06 10:49:02;;;;;;;5.8;2.3;;;;;;;11.58;65.27246;98105.55;;;;
2021/05/06 10:58:59;;;;;;;3;1.3;;;;;;;11.93;62.9834;98106.17;;;;
2021/05/06 11:08:58;;;;;;;3.9;1.7;;;;;;;12.07;63.39063;98101.31;;;;
2021/05/06 11:18:59;;;;;;;3.3;1.5;;;;;;;11.87;63.95215;98102.85;;;;
2021/05/06 11:28:56;;;;;;;2.3;1.2;;;;;;;12.26;63.91797;98084.63;;;;
2021/05/06 11:38:55;;;;;;;2.1;1.1;;;;;;;12.6;65.56055;98073.51;;;;
2021/05/06 11:48:55;;;;;;;2.8;1.2;;;;;;;14;64.73145;98060.33;;;;
2021/05/06 11:58:54;;;;;;;7.4;3.7;;;;;;;14.27;60.02832;98069.63;;;;
2021/05/06 12:08:53;;;;;;;3.5;1.5;;;;;;;13.78;60.13281;98043.8;;;;
2021/05/06 12:18:52;;;;;;;3;1.2;;;;;;;12.96;59.69043;98051.98;;;;
2021/05/06 12:28:52;;;;;;;2.8;1.3;;;;;;;12.45;63.61621;98049.82;;;;
2021/05/06 12:38:52;;;;;;;3.3;1.6;;;;;;;12.99;63.78613;98035.08;;;;
2021/05/06 12:48:50;;;;;;;5;1.8;;;;;;;13.49;61.18945;98010.44;;;;
2021/05/06 12:58:49;;;;;;;3.4;1.6;;;;;;;12.75;61.99609;98009.91;;;;
2021/05/06 13:08:48;;;;;;;3.2;1.9;;;;;;;12.66;61.4043;98001.91;;;;
2021/05/06 13:18:47;;;;;;;4.1;1.5;;;;;;;12.23;62.98242;98007.73;;;;
2021/05/06 13:28:46;;;;;;;7.6;1.5;;;;;;;12.15;61.37793;98008.59;;;;
2021/05/06 13:38:45;;;;;;;4.3;1.6;;;;;;;12.54;61.25098;97997.25;;;;
2021/05/06 13:48:44;;;;;;;4.5;2.3;;;;;;;13.41;61.57715;97972.65;;;;
2021/05/06 13:58:43;;;;;;;2.5;1.3;;;;;;;14.23;59.65625;97967.68;;;;
2021/05/06 14:08:43;;;;;;;4.4;2.1;;;;;;;14.57;55.5459;97961.65;;;;
2021/05/06 14:18:43;;;;;;;3.5;1.8;;;;;;;15.67;57.91309;97943.33;;;;
2021/05/06 14:28:41;;;;;;;3;1.6;;;;;;;14.54;54.87793;97938.7;;;;
2021/05/06 14:38:41;;;;;;;2;0.9;;;;;;;13.47;57.05176;97960.45;;;;
2021/05/06 14:48:40;;;;;;;2.9;1.6;;;;;;;13.94;63.74121;97953.34;;;;
2021/05/06 14:58:39;;;;;;;2.8;1.8;;;;;;;14.85;58.29785;97942.59;;;;
2021/05/06 15:08:42;;;;;;;5;1.8;;;;;;;15.53;55.34668;97927.52;;;;
2021/05/06 15:18:38;;;;;;;2.8;1.2;;;;;;;16.95;49.08789;97911.92;;;;
2021/05/06 15:28:38;;;;;;;5.5;2.9;;;;;;;14.96;53.1748;97914.55;;;;
2021/05/06 15:38:37;;;;;;;3.6;1.8;;;;;;;16.26;51.12012;97883.13;;;;
2021/05/06 15:48:37;;;;;;;3.8;1.8;;;;;;;18.96;37.47461;97875.31;;;;
2021/05/06 15:58:37;;;;;;;6.2;2;;;;;;;16.34;39.92383;97837.83;;;;
2021/05/06 16:08:37;;;;;;;3.6;2.1;;;;;;;17.53;40.31055;97830.63;;;;
2021/05/06 16:18:40;;;;;;;3.4;1.8;;;;;;;16.68;41.58594;97809.64;;;;
2021/05/06 16:28:36;;;;;;;3.8;2.1;;;;;;;15.31;42.9541;97826.91;;;;
2021/05/06 16:38:41;;;;;;;4.8;2.6;;;;;;;14.51;44.69336;97803.04;;;;
2021/05/06 16:48:35;;;;;;;3.9;2.1;;;;;;;13.74;46.88574;97807.28;;;;
2021/05/06 16:58:34;;;;;;;6.3;2.5;;;;;;;13.15;47.79688;97824.22;;;;
2021/05/06 17:08:33;;;;;;;5.8;2.1;;;;;;;12.87;48.71484;97817.93;;;;
2021/05/06 17:18:33;;;;;;;5.8;3.5;;;;;;;12.49;50.4668;97804.8;;;;
2021/05/06 17:28:32;;;;;;;6.8;3.7;;;;;;;11.94;51.35059;97800.68;;;;
2021/05/06 17:38:31;;;;;;;4.6;2.1;;;;;;;11.61;52.16504;97808;;;;
2021/05/06 17:48:29;;;;;;;4.5;3.1;;;;;;;11.21;54.43848;97809.66;;;;
2021/05/06 17:58:29;;;;;;;5.5;3.2;;;;;;;10.9;56.24219;97824.3;;;;
2021/05/06 18:08:27;;;;;;;3.2;1.8;;;;;;;10.56;58.40918;97824.52;;;;
2021/05/06 18:18:26;;;;;;;4.4;2.4;;;;;;;10.21;60.20996;97815.02;;;;
2021/05/06 18:28:25;;;;;;;4.9;2.1;;;;;;;10;61.30273;97821.09;;;;
2021/05/06 18:38:24;;;;;;;7.4;3.3;;;;;;;9.68;63.92773;97824.36;;;;
2021/05/06 18:48:24;;;;;;;8.8;4.3;;;;;;;9.37;65.72168;97816.47;;;;
2021/05/06 18:58:21;;;;;;;12.1;5.2;;;;;;;9.18;67.11523;97829.46;;;;
2021/05/06 19:08:20;;;;;;;8.6;6.5;;;;;;;8.91;71.73633;97833.25;;;;
2021/05/06 19:18:18;;;;;;;6.3;4.3;;;;;;;8.96;69.32324;97833.08;;;;
2021/05/06 19:28:16;;;;;;;10;3.4;;;;;;;8.79;70.64746;97840.33;;;;
2021/05/06 19:38:15;;;;;;;6.1;3;;;;;;;8.71;72.53516;97830.38;;;;
2021/05/06 19:48:13;;;;;;;7;3.6;;;;;;;8.77;72.35352;97837.17;;;;
2021/05/06 19:58:12;;;;;;;8.6;5;;;;;;;8.98;70.1377;97830.89;;;;
2021/05/06 20:08:10;;;;;;;8.3;4.7;;;;;;;8.97;70.33984;97815.86;;;;
2021/05/06 20:18:10;;;;;;;26.4;17.4;;;;;;;8.85;71.61328;97810.3;;;;
2021/05/06 20:28:08;;;;;;;18.2;13.1;;;;;;;8.85;71.45605;97804.93;;;;
2021/05/06 20:38:06;;;;;;;8.6;5.6;;;;;;;8.97;70.42871;97780.13;;;;
2021/05/06 20:48:05;;;;;;;7.9;4.9;;;;;;;9.04;69.65039;97777.75;;;;
2021/05/06 20:58:03;;;;;;;9.3;5.6;;;;;;;9.01;70.85156;97743.45;;;;
2021/05/06 21:08:02;;;;;;;8.4;4.7;;;;;;;8.9;69.9668;97740.3;;;;
2021/05/06 21:18:00;;;;;;;7;4.6;;;;;;;8.77;71.4541;97722.45;;;;
2021/05/06 21:27:59;;;;;;;8.1;4.3;;;;;;;8.72;71.25391;97711.05;;;;
2021/05/06 21:37:57;;;;;;;13.5;5.6;;;;;;;8.69;71.03516;97703.63;;;;
2021/05/06 21:47:56;;;;;;;10;4.5;;;;;;;8.68;72.00293;97689.41;;;;
2021/05/06 21:57:54;;;;;;;8.7;3.9;;;;;;;8.69;73.20703;97685.63;;;;
2021/05/06 22:07:53;;;;;;;6.7;2.2;;;;;;;8.89;69.39063;97678.8;;;;
2021/05/06 22:17:51;;;;;;;3.7;2.1;;;;;;;9.29;66.16113;97671.3;;;;
2021/05/06 22:27:50;;;;;;;7.2;2.3;;;;;;;9.42;64.85938;97678.37;;;;
2021/05/06 22:37:48;;;;;;;5.6;3;;;;;;;9.39;66.48145;97681.7;;;;
2021/05/06 22:47:49;;;;;;;5.4;3;;;;;;;9.36;68.7002;97669.7;;;;
2021/05/06 22:57:45;;;;;;;5.5;3.3;;;;;;;9.32;70.64355;97665.28;;;;
2021/05/06 23:07:44;;;;;;;7.7;4;;;;;;;9.21;71.32324;97650.59;;;;
2021/05/06 23:17:42;;;;;;;5.2;3.1;;;;;;;9.17;77.7998;97639.7;;;;
2021/05/06 23:27:41;;;;;;;5.1;2.6;;;;;;;9.03;79.97754;97621.08;;;;
2021/05/06 23:37:40;;;;;;;4.7;2.3;;;;;;;8.89;88.42969;97623.17;;;;
2021/05/06 23:47:38;;;;;;;3.7;2.3;;;;;;;8.86;91.17773;97615.75;;;;
2021/05/06 23:57:37;;;;;;;4.2;2;;;;;;;8.65;95.42578;97606.78;;;;
